Time;durP1;ratioP1;P1;durP2;ratioP2;P2;SDS_P1;SDS_P2;PMS_P1;PMS_P2;Temp;Humidity;BMP_temperature;BMP_pressure;BME280_temperature;BME280_humidity;BME280_pressure;Samples;Min_cycle;Max_cycle;Signal;HPM_P1;HPM_P2
2022/09/18 00:01:14;;;;;;;10.30;1.60;;;10.40;99.90;;;;;;5080732;28;20048;-79
2022/09/18 00:03:41;;;;;;;7.28;1.27;;;10.40;99.90;;;;;;5075869;28;20046;-80
2022/09/18 00:06:12;;;;;;;;;;;10.30;99.90;;;;;;5078900;28;20040;-79
2022/09/18 00:08:38;;;;;;;6.97;1.40;;;10.30;99.90;;;;;;5078706;28;19917;-79
2022/09/18 00:11:09;;;;;;;8.65;1.25;;;10.30;99.90;;;;;;5068631;28;20115;-79
2022/09/18 00:13:37;;;;;;;12.65;0.98;;;10.20;99.90;;;;;;5077825;28;20104;-79
2022/09/18 00:16:04;;;;;;;8.52;1.25;;;10.30;99.90;;;;;;5080028;28;20049;-79
2022/09/18 00:18:30;;;;;;;6.95;0.90;;;10.30;99.90;;;;;;5062792;28;20058;-80
2022/09/18 00:21:06;;;;;;;6.93;0.88;;;10.30;99.90;;;;;;5082795;28;20036;-80
2022/09/18 00:23:32;;;;;;;5.80;1.10;;;10.20;99.90;;;;;;5076372;28;20055;-78
2022/09/18 00:25:57;;;;;;;3.63;0.80;;;10.20;99.90;;;;;;5052300;28;20046;-79
2022/09/18 00:28:23;;;;;;;6.57;0.73;;;10.20;99.90;;;;;;5081861;28;20046;-79
2022/09/18 00:30:48;;;;;;;7.80;1.13;;;10.20;99.90;;;;;;5054520;28;20045;-79
2022/09/18 00:33:14;;;;;;;9.00;1.33;;;10.30;99.90;;;;;;5050790;28;20785;-79
2022/09/18 00:35:43;;;;;;;5.00;0.80;;;10.30;99.90;;;;;;5050496;28;20479;-79
2022/09/18 00:38:09;;;;;;;6.70;1.00;;;10.30;99.90;;;;;;5032162;28;20086;-79
2022/09/18 00:40:35;;;;;;;7.55;0.88;;;10.30;99.90;;;;;;5074250;28;20042;-79
2022/09/18 00:43:36;;;;;;;8.40;1.50;;;10.30;99.90;;;;;;5040514;28;20040;-79
2022/09/18 00:46:06;;;;;;;7.13;1.20;;;10.30;99.90;;;;;;4956359;28;20348;-79
2022/09/18 00:48:37;;;;;;;3.22;0.90;;;10.30;99.90;;;;;;5053836;28;20042;-78
2022/09/18 00:51:04;;;;;;;7.53;1.15;;;10.20;99.90;;;;;;5063311;28;20538;-79
2022/09/18 00:53:29;;;;;;;6.93;1.33;;;10.20;99.90;;;;;;5071435;28;20042;-79
2022/09/18 00:55:57;;;;;;;5.07;0.77;;;10.20;99.90;;;;;;5072314;28;20498;-79
2022/09/18 00:58:23;;;;;;;7.10;1.23;;;10.30;99.90;;;;;;5067868;28;20046;-79
2022/09/18 01:00:49;;;;;;;7.22;1.00;;;10.20;99.90;;;;;;5049968;28;20045;-79
2022/09/18 01:03:14;;;;;;;6.73;1.07;;;10.30;99.90;;;;;;5077592;28;20030;-79
2022/09/18 01:06:21;;;;;;;8.05;1.00;;;10.30;99.90;;;;;;5044622;28;20281;-79
2022/09/18 01:09:06;;;;;;;5.80;0.93;;;10.40;99.90;;;;;;5027271;28;20058;-79
2022/09/18 01:12:17;;;;;;;8.23;1.00;;;10.40;99.90;;;;;;5064225;28;20034;-79
2022/09/18 01:14:56;;;;;;;9.43;1.27;;;10.40;99.90;;;;;;5057891;28;20038;-79
2022/09/18 01:18:00;;;;;;;4.90;1.17;;;10.30;99.90;;;;;;5070219;28;20041;-79
2022/09/18 01:20:59;;;;;;;6.20;0.95;;;10.30;99.90;;;;;;4985129;28;20061;-78
2022/09/18 01:24:01;;;;;;;5.32;1.02;;;10.20;99.90;;;;;;5075350;28;20083;-79
2022/09/18 01:26:53;;;;;;;9.55;1.02;;;10.20;99.90;;;;;;5067813;28;20091;-79
2022/09/18 01:29:34;;;;;;;6.65;0.90;;;10.20;99.90;;;;;;5059419;28;20050;-79
2022/09/18 01:32:21;;;;;;;9.98;1.02;;;10.10;99.90;;;;;;5061346;28;20041;-79
2022/09/18 01:35:07;;;;;;;9.25;1.10;;;10.20;99.90;;;;;;5066463;28;20391;-79
2022/09/18 01:37:47;;;;;;;5.53;1.02;;;10.10;99.90;;;;;;5057194;28;20036;-79
2022/09/18 01:40:18;;;;;;;5.40;1.08;;;10.10;99.90;;;;;;5079394;28;20481;-79
2022/09/18 01:42:47;;;;;;;5.28;1.08;;;10.10;99.90;;;;;;5072149;28;20050;-79
2022/09/18 01:45:19;;;;;;;6.88;0.82;;;10.10;99.90;;;;;;5070192;28;20048;-80
2022/09/18 01:47:56;;;;;;;8.63;1.10;;;10.10;99.90;;;;;;5082751;28;20125;-79
2022/09/18 01:50:29;;;;;;;4.97;0.95;;;10.10;99.90;;;;;;5080173;28;20048;-79
2022/09/18 01:53:05;;;;;;;4.03;1.10;;;10.10;99.90;;;;;;5067028;28;20042;-79
2022/09/18 01:55:33;;;;;;;3.00;0.77;;;10.10;99.90;;;;;;5070433;28;20046;-79
2022/09/18 01:58:07;;;;;;;4.22;1.00;;;10.10;99.90;;;;;;5066971;28;20278;-79
2022/09/18 02:00:41;;;;;;;3.85;1.00;;;10.20;99.90;;;;;;5067019;28;20094;-79
2022/09/18 02:03:12;;;;;;;7.93;1.00;;;10.20;99.90;;;;;;5075600;28;20490;-79
2022/09/18 02:05:51;;;;;;;10.43;1.15;;;10.10;99.90;;;;;;5073743;28;20441;-79
2022/09/18 02:08:20;;;;;;;6.18;1.00;;;10.10;99.90;;;;;;5063317;28;20042;-79
2022/09/18 02:10:56;;;;;;;7.60;1.30;;;10.10;99.90;;;;;;5046562;28;20048;-79
2022/09/18 02:13:28;;;;;;;6.50;0.93;;;10.10;99.90;;;;;;5075628;28;20441;-79
2022/09/18 02:16:03;;;;;;;6.57;0.90;;;10.20;99.90;;;;;;5050849;28;20121;-79
2022/09/18 02:18:33;;;;;;;9.40;1.38;;;10.20;99.90;;;;;;5067549;28;20077;-78
2022/09/18 02:21:00;;;;;;;8.52;1.20;;;10.20;99.90;;;;;;5053269;28;20491;-78
2022/09/18 02:23:27;;;;;;;7.22;1.02;;;10.20;99.90;;;;;;5080742;28;20119;-79
2022/09/18 02:25:57;;;;;;;4.78;0.95;;;10.20;99.90;;;;;;5071536;28;20049;-79
2022/09/18 02:28:25;;;;;;;6.80;1.30;;;10.20;99.90;;;;;;5082594;28;20125;-79
2022/09/18 02:30:51;;;;;;;6.18;1.15;;;10.20;99.90;;;;;;5066957;28;20049;-79
2022/09/18 02:33:31;;;;;;;7.50;1.23;;;10.20;99.90;;;;;;5075686;28;20483;-79
2022/09/18 02:36:22;;;;;;;9.50;1.27;;;10.20;99.90;;;;;;5073632;28;20046;-79
2022/09/18 02:38:56;;;;;;;5.57;1.17;;;10.10;99.90;;;;;;5070304;28;20038;-79
2022/09/18 02:41:36;;;;;;;8.43;1.00;;;10.20;99.90;;;;;;5076608;28;20044;-79
2022/09/18 02:44:15;;;;;;;8.00;1.20;;;10.20;99.90;;;;;;5081388;28;20093;-79
2022/09/18 02:46:43;;;;;;;9.10;1.35;;;10.20;99.90;;;;;;5067439;28;20132;-79
2022/09/18 02:49:36;;;;;;;8.80;1.00;;;10.20;99.90;;;;;;5061753;28;20121;-79
2022/09/18 02:52:12;;;;;;;8.07;1.20;;;10.20;99.90;;;;;;5070854;28;20041;-78
2022/09/18 02:54:57;;;;;;;14.90;1.38;;;10.20;99.90;;;;;;5069978;28;20047;-79
2022/09/18 02:57:32;;;;;;;9.77;1.00;;;10.20;99.90;;;;;;5077731;28;20033;-79
2022/09/18 02:59:59;;;;;;;9.13;1.30;;;10.30;99.90;;;;;;5067326;28;20372;-79
2022/09/18 03:02:25;;;;;;;8.80;1.42;;;10.40;99.90;;;;;;5078496;28;20046;-79
2022/09/18 03:04:51;;;;;;;7.57;0.90;;;10.40;99.90;;;;;;5073883;28;20103;-78
2022/09/18 03:07:17;;;;;;;10.88;1.30;;;10.50;99.90;;;;;;5057397;28;20038;-78
2022/09/18 03:09:43;;;;;;;7.07;1.23;;;10.50;99.90;;;;;;5064748;28;20034;-79
2022/09/18 03:12:10;;;;;;;6.88;1.20;;;10.40;99.90;;;;;;5065041;28;20037;-79
2022/09/18 03:14:35;;;;;;;7.88;1.15;;;10.50;99.90;;;;;;5060591;28;20050;-80
2022/09/18 03:17:02;;;;;;;11.27;1.37;;;10.50;99.90;;;;;;5041968;28;20035;-79
2022/09/18 03:19:27;;;;;;;8.80;1.45;;;10.50;99.90;;;;;;5070082;28;20284;-78
2022/09/18 03:21:53;;;;;;;15.40;1.43;;;10.50;99.90;;;;;;5077051;28;20041;-78
2022/09/18 03:24:19;;;;;;;5.93;1.13;;;10.50;99.90;;;;;;5045144;28;20532;-78
2022/09/18 03:26:45;;;;;;;8.65;1.42;;;10.50;99.90;;;;;;5032702;28;20125;-78
2022/09/18 03:29:13;;;;;;;8.80;1.58;;;10.50;99.90;;;;;;5021186;28;20121;-78
2022/09/18 03:31:39;;;;;;;6.28;1.00;;;10.50;99.90;;;;;;5051790;28;20044;-78
2022/09/18 03:34:05;;;;;;;6.63;0.90;;;10.50;99.90;;;;;;5030933;28;20696;-79
2022/09/18 03:36:31;;;;;;;11.50;1.20;;;10.50;99.90;;;;;;5018633;28;20038;-79
2022/09/18 03:38:57;;;;;;;5.45;0.98;;;10.50;99.90;;;;;;5012060;28;20422;-79
2022/09/18 03:41:23;;;;;;;7.10;1.15;;;10.50;99.90;;;;;;5041198;28;20064;-79
2022/09/18 03:43:50;;;;;;;4.72;1.00;;;10.50;99.90;;;;;;5021507;28;20060;-79
2022/09/18 03:46:21;;;;;;;;;;;10.40;99.90;;;;;;5044404;28;20040;-79
2022/09/18 03:48:47;;;;;;;7.50;0.88;;;10.40;99.90;;;;;;5002572;28;19940;-79
2022/09/18 03:51:13;;;;;;;;;;;10.40;99.90;;;;;;5038905;28;20037;-79
2022/09/18 03:53:39;;;;;;;6.03;0.90;;;10.40;99.90;;;;;;5037121;28;19922;-79
2022/09/18 03:56:05;;;;;;;6.22;0.93;;;10.30;99.90;;;;;;5020497;28;20440;-79
2022/09/18 03:58:30;;;;;;;5.95;0.85;;;10.30;99.90;;;;;;5031805;28;20050;-79
2022/09/18 04:00:56;;;;;;;8.07;1.17;;;10.30;99.90;;;;;;5041164;28;20076;-79
2022/09/18 04:03:22;;;;;;;8.97;1.00;;;10.30;99.90;;;;;;5013588;28;20309;-79
2022/09/18 04:05:48;;;;;;;4.57;1.03;;;10.30;99.90;;;;;;5022513;28;20032;-79
2022/09/18 04:08:14;;;;;;;4.00;0.80;;;10.30;99.90;;;;;;5027042;28;20031;-79
2022/09/18 04:10:40;;;;;;;3.78;0.80;;;10.30;99.90;;;;;;5018724;28;20038;-79
2022/09/18 04:13:06;;;;;;;5.90;1.00;;;10.30;99.90;;;;;;5060450;28;20057;-79
2022/09/18 04:15:32;;;;;;;9.47;1.30;;;10.30;99.90;;;;;;5040013;28;20040;-79
2022/09/18 04:17:57;;;;;;;4.57;0.90;;;10.40;99.90;;;;;;5011935;28;20038;-79
2022/09/18 04:20:23;;;;;;;7.05;1.33;;;10.80;99.90;;;;;;5044550;28;20832;-79
2022/09/18 04:22:49;;;;;;;5.65;0.98;;;10.40;99.90;;;;;;5028495;28;20383;-79
2022/09/18 04:25:15;;;;;;;7.40;0.80;;;10.40;99.90;;;;;;5066003;28;20047;-79
2022/09/18 04:27:41;;;;;;;5.80;1.00;;;10.50;99.90;;;;;;5082634;28;20098;-79
2022/09/18 04:30:07;;;;;;;7.57;1.23;;;10.40;99.90;;;;;;5081922;28;20504;-79
2022/09/18 04:32:33;;;;;;;5.82;1.00;;;10.40;99.90;;;;;;5064501;28;20128;-79
2022/09/18 04:34:59;;;;;;;6.35;0.90;;;10.40;99.90;;;;;;5080605;28;20565;-79
2022/09/18 04:37:24;;;;;;;5.13;0.80;;;10.40;99.90;;;;;;5061113;28;20116;-78
2022/09/18 04:39:50;;;;;;;7.57;0.80;;;10.60;99.90;;;;;;5058897;28;20079;-79
2022/09/18 04:42:16;;;;;;;4.35;0.90;;;10.40;99.90;;;;;;5067703;28;20035;-79
2022/09/18 04:44:41;;;;;;;8.00;0.97;;;10.30;99.90;;;;;;5075884;28;20054;-79
2022/09/18 04:47:07;;;;;;;4.60;0.80;;;10.40;99.90;;;;;;5077857;28;20051;-79
2022/09/18 04:49:33;;;;;;;6.47;1.03;;;10.40;99.90;;;;;;5082904;28;20048;-79
2022/09/18 04:51:58;;;;;;;4.00;0.70;;;10.40;99.90;;;;;;5075655;28;20134;-79
2022/09/18 04:54:24;;;;;;;5.63;1.17;;;10.40;99.90;;;;;;5062568;28;20839;-78
2022/09/18 04:56:50;;;;;;;6.87;0.80;;;10.40;99.90;;;;;;5065854;28;20048;-79
2022/09/18 04:59:15;;;;;;;6.43;0.80;;;10.40;99.90;;;;;;5063038;28;20133;-79
2022/09/18 05:01:41;;;;;;;4.60;0.50;;;10.40;99.90;;;;;;5079742;28;20282;-79
2022/09/18 05:04:07;;;;;;;5.93;1.03;;;10.40;99.90;;;;;;5076825;28;20055;-78
2022/09/18 05:06:33;;;;;;;7.82;1.02;;;10.40;99.90;;;;;;5056880;28;20032;-79
2022/09/18 05:08:59;;;;;;;;;;;10.40;99.90;;;;;;5080861;28;20080;-79
2022/09/18 05:11:25;;;;;;;3.20;0.75;;;10.40;99.90;;;;;;5074765;28;20005;-78
2022/09/18 05:13:55;;;;;;;7.03;0.90;;;10.30;99.90;;;;;;5082783;28;20041;-79
2022/09/18 05:16:22;;;;;;;7.43;1.08;;;10.40;99.90;;;;;;5082241;28;20051;-79
2022/09/18 05:18:49;;;;;;;8.13;1.15;;;10.40;99.90;;;;;;5087269;28;20043;-78
2022/09/18 05:21:15;;;;;;;4.68;0.90;;;10.40;99.90;;;;;;5075750;28;20366;-78
2022/09/18 05:23:41;;;;;;;7.90;0.83;;;10.40;99.90;;;;;;5067350;28;20047;-78
2022/09/18 05:26:07;;;;;;;6.93;0.70;;;10.40;99.90;;;;;;5029881;28;20047;-78
2022/09/18 05:28:33;;;;;;;4.50;0.97;;;10.40;99.90;;;;;;5056958;28;20543;-77
2022/09/18 05:30:59;;;;;;;6.30;0.77;;;10.40;99.90;;;;;;5069336;28;20339;-78
2022/09/18 05:33:25;;;;;;;;;;;10.40;99.90;;;;;;5051770;28;20286;-78
2022/09/18 05:35:55;;;;;;;3.22;0.60;;;10.40;99.90;;;;;;5064298;28;20317;-78
2022/09/18 05:38:21;;;;;;;5.10;1.48;;;10.40;99.90;;;;;;5051321;28;20125;-78
2022/09/18 05:40:47;;;;;;;;;;;10.40;99.90;;;;;;5066390;28;20522;-78
2022/09/18 05:43:14;;;;;;;3.83;0.70;;;10.40;99.90;;;;;;5048387;28;19957;-78
2022/09/18 05:45:39;;;;;;;3.00;0.75;;;10.40;99.90;;;;;;5063454;28;20046;-79
2022/09/18 05:48:06;;;;;;;4.83;0.73;;;10.30;99.90;;;;;;5060892;28;20042;-79
2022/09/18 05:50:32;;;;;;;5.53;0.55;;;10.30;99.90;;;;;;5083225;28;20289;-78
2022/09/18 05:53:01;;;;;;;;;;;10.30;99.90;;;;;;5047249;28;20038;-78
2022/09/18 05:55:27;;;;;;;4.57;0.77;;;10.40;99.90;;;;;;5060452;28;19929;-79
2022/09/18 05:57:55;;;;;;;7.25;0.80;;;10.40;99.90;;;;;;5069302;28;20375;-78
2022/09/18 06:00:25;;;;;;;5.32;0.85;;;10.50;99.90;;;;;;5065779;28;20817;-78
2022/09/18 06:02:55;;;;;;;2.45;0.50;;;10.50;99.90;;;;;;5079238;28;20085;-78
2022/09/18 06:05:22;;;;;;;4.72;0.60;;;10.50;99.90;;;;;;5059255;28;20485;-78
2022/09/18 06:07:48;;;;;;;6.57;0.88;;;10.50;99.90;;;;;;5075339;28;20522;-74
2022/09/18 06:10:14;;;;;;;6.57;0.82;;;10.50;99.90;;;;;;5077843;28;20094;-74
2022/09/18 06:12:40;;;;;;;10.10;1.38;;;10.50;99.90;;;;;;5076525;28;20133;-73
2022/09/18 06:15:06;;;;;;;4.63;1.23;;;10.50;99.90;;;;;;5057215;28;20835;-73
2022/09/18 06:17:32;;;;;;;4.53;0.90;;;10.50;99.90;;;;;;5059937;28;20038;-73
2022/09/18 06:19:58;;;;;;;6.80;0.93;;;10.50;99.90;;;;;;5073672;28;20373;-73
2022/09/18 06:22:25;;;;;;;5.75;0.60;;;10.60;99.90;;;;;;5069161;28;20416;-73
2022/09/18 06:24:50;;;;;;;4.97;0.70;;;10.60;99.90;;;;;;5081021;28;20106;-73
2022/09/18 06:27:16;;;;;;;4.97;0.77;;;10.60;99.90;;;;;;5070380;28;20450;-74
2022/09/18 06:29:42;;;;;;;6.17;0.90;;;10.60;99.90;;;;;;5078041;28;20038;-73
2022/09/18 06:32:08;;;;;;;7.03;0.73;;;10.60;99.90;;;;;;5061422;28;20297;-73
2022/09/18 06:34:34;;;;;;;5.30;0.82;;;10.70;99.90;;;;;;5081569;28;20116;-73
2022/09/18 06:37:00;;;;;;;3.00;0.47;;;10.70;99.90;;;;;;5057325;28;20179;-73
2022/09/18 06:39:25;;;;;;;6.22;0.80;;;10.70;99.90;;;;;;5079035;28;20092;-73
2022/09/18 06:41:51;;;;;;;6.90;1.00;;;10.70;99.90;;;;;;5077140;28;20044;-73
2022/09/18 06:44:17;;;;;;;6.63;1.13;;;10.80;99.90;;;;;;5054895;28;20050;-73
2022/09/18 06:46:42;;;;;;;7.80;1.25;;;10.80;99.90;;;;;;5075934;28;20041;-73
2022/09/18 06:49:08;;;;;;;6.33;0.67;;;11.30;99.90;;;;;;5055027;28;20364;-73
2022/09/18 06:51:34;;;;;;;6.03;0.98;;;10.90;99.90;;;;;;5074671;28;20301;-73
2022/09/18 06:54:00;;;;;;;8.70;1.23;;;10.90;99.90;;;;;;5052623;28;20051;-74
2022/09/18 06:56:26;;;;;;;1.70;0.40;;;10.90;99.90;;;;;;5070412;28;20041;-74
2022/09/18 06:58:52;;;;;;;9.03;1.40;;;10.90;99.90;;;;;;5075521;28;20313;-73
2022/09/18 07:01:18;;;;;;;;;;;11.00;99.90;;;;;;5063612;28;20809;-74
2022/09/18 07:03:46;;;;;;;3.88;0.70;;;11.00;99.90;;;;;;5060927;28;19918;-75
2022/09/18 07:06:12;;;;;;;4.50;0.60;;;10.90;99.90;;;;;;5079728;28;20126;-75
2022/09/18 07:08:38;;;;;;;7.15;0.70;;;11.10;99.90;;;;;;5075248;28;20172;-74
2022/09/18 07:11:04;;;;;;;2.83;0.57;;;11.10;99.90;;;;;;5044130;28;20046;-73
2022/09/18 07:13:31;;;;;;;5.13;0.73;;;11.10;99.90;;;;;;5059881;28;20299;-73
2022/09/18 07:15:57;;;;;;;1.27;0.47;;;11.10;99.90;;;;;;5066945;28;20297;-74
2022/09/18 07:18:23;;;;;;;5.75;0.68;;;11.10;99.90;;;;;;5065033;28;20033;-73
2022/09/18 07:20:49;;;;;;;;;;;11.10;99.90;;;;;;5078116;28;20038;-73
2022/09/18 07:23:15;;;;;;;4.50;0.60;;;11.10;99.90;;;;;;5080002;28;20051;-74
2022/09/18 07:25:40;;;;;;;2.87;0.40;;;11.10;99.90;;;;;;5075389;28;20130;-74
2022/09/18 07:28:09;;;;;;;3.30;0.50;;;11.10;99.90;;;;;;5056802;28;20370;-74
2022/09/18 07:30:39;;;;;;;3.85;0.95;;;11.10;99.90;;;;;;5074810;28;20115;-74
2022/09/18 07:33:06;;;;;;;3.03;0.80;;;11.20;99.90;;;;;;5077346;28;20058;-74
2022/09/18 07:35:32;;;;;;;3.58;0.68;;;11.10;99.90;;;;;;5058194;28;20536;-72
2022/09/18 07:38:04;;;;;;;5.65;0.70;;;11.20;99.90;;;;;;5051239;28;20066;-72
2022/09/18 07:40:31;;;;;;;6.45;0.80;;;11.20;99.90;;;;;;5077514;28;20049;-72
2022/09/18 07:43:14;;;;;;;8.85;1.02;;;11.20;99.90;;;;;;5079341;28;20101;-72
2022/09/18 07:45:42;;;;;;;5.90;1.00;;;11.20;99.90;;;;;;5069390;28;20050;-72
2022/09/18 07:48:08;;;;;;;3.55;0.95;;;11.20;99.90;;;;;;5061926;28;20651;-72
2022/09/18 07:50:33;;;;;;;5.57;1.00;;;11.10;99.90;;;;;;5033354;28;20133;-72
2022/09/18 07:53:02;;;;;;;5.32;0.90;;;11.10;99.90;;;;;;5061159;28;20088;-73
2022/09/18 07:55:28;;;;;;;4.13;0.90;;;11.10;99.90;;;;;;5057884;28;20437;-72
2022/09/18 07:57:59;;;;;;;9.00;1.60;;;11.10;99.90;;;;;;5044816;28;20051;-74
2022/09/18 08:00:27;;;;;;;6.55;0.98;;;11.10;99.90;;;;;;5050533;28;20030;-73
2022/09/18 08:03:08;;;;;;;3.65;0.70;;;11.10;99.90;;;;;;5074721;28;20432;-73
2022/09/18 08:05:34;;;;;;;5.97;1.00;;;11.10;99.90;;;;;;5064579;28;20133;-72
2022/09/18 08:08:11;;;;;;;6.28;1.23;;;11.10;99.90;;;;;;5079583;28;20042;-73
2022/09/18 08:10:39;;;;;;;6.10;1.08;;;11.10;99.90;;;;;;5043178;28;20183;-73
2022/09/18 08:13:05;;;;;;;5.95;0.80;;;11.10;99.90;;;;;;5055510;28;20034;-72
2022/09/18 08:15:32;;;;;;;7.82;1.35;;;11.10;99.90;;;;;;5061252;28;20038;-73
2022/09/18 08:17:58;;;;;;;5.25;0.85;;;11.20;99.90;;;;;;5072965;28;20038;-73
2022/09/18 08:20:24;;;;;;;6.25;1.08;;;11.20;99.90;;;;;;5055655;28;20036;-72
2022/09/18 08:22:50;;;;;;;12.32;2.10;;;11.10;99.90;;;;;;5072477;28;20046;-72
2022/09/18 08:25:16;;;;;;;3.90;0.95;;;11.20;99.90;;;;;;5069704;28;20046;-72
2022/09/18 08:27:42;;;;;;;4.60;0.80;;;11.10;99.90;;;;;;5078270;28;20042;-72
2022/09/18 08:30:11;;;;;;;7.28;1.05;;;11.20;99.90;;;;;;5071335;28;20099;-72
2022/09/18 08:32:37;;;;;;;8.52;1.08;;;11.10;99.90;;;;;;5074988;28;20120;-72
2022/09/18 08:35:03;;;;;;;5.05;0.80;;;11.20;99.90;;;;;;5068856;28;20129;-72
2022/09/18 08:37:30;;;;;;;8.30;1.42;;;11.20;99.90;;;;;;5059090;28;20502;-72
2022/09/18 08:39:56;;;;;;;3.60;0.85;;;11.20;99.90;;;;;;5083943;28;20046;-72
2022/09/18 08:42:27;;;;;;;4.47;0.93;;;11.20;99.90;;;;;;5056592;28;20041;-72
2022/09/18 08:44:59;;;;;;;6.00;0.90;;;11.20;99.90;;;;;;5069335;28;20099;-73
2022/09/18 08:47:49;;;;;;;6.95;0.93;;;11.20;99.90;;;;;;5079620;28;20042;-73
2022/09/18 08:50:20;;;;;;;5.45;0.77;;;11.20;99.90;;;;;;5068720;28;20073;-73
2022/09/18 08:52:50;;;;;;;5.75;0.75;;;11.20;99.90;;;;;;5075822;28;20649;-73
2022/09/18 08:55:37;;;;;;;6.75;0.98;;;11.20;99.90;;;;;;5072759;28;20104;-73
2022/09/18 08:58:13;;;;;;;5.43;0.90;;;11.10;99.90;;;;;;5059011;28;20046;-72
2022/09/18 09:00:46;;;;;;;4.68;0.73;;;11.10;99.90;;;;;;5075210;28;20046;-72
2022/09/18 09:03:53;;;;;;;7.20;1.00;;;11.10;99.90;;;;;;5067217;28;20042;-73
2022/09/18 09:06:44;;;;;;;2.38;0.60;;;11.10;99.90;;;;;;5042601;28;20066;-72
2022/09/18 09:09:22;;;;;;;3.78;0.82;;;11.10;99.90;;;;;;5073499;28;20429;-72
2022/09/18 09:12:10;;;;;;;7.50;1.17;;;11.20;99.90;;;;;;5063570;28;20106;-73
2022/09/18 09:15:08;;;;;;;5.97;0.98;;;11.10;99.90;;;;;;5072914;28;20038;-72
2022/09/18 09:17:38;;;;;;;6.07;0.80;;;11.10;99.90;;;;;;5068795;28;20050;-72
2022/09/18 09:20:23;;;;;;;4.60;0.90;;;11.00;99.90;;;;;;5073758;28;20050;-72
2022/09/18 09:23:18;;;;;;;7.00;1.05;;;11.00;99.90;;;;;;5074881;28;20049;-72
2022/09/18 09:26:08;;;;;;;6.15;1.02;;;11.00;99.90;;;;;;5074332;28;20090;-73
2022/09/18 09:28:54;;;;;;;5.93;0.98;;;10.90;99.90;;;;;;5073739;28;20058;-73
2022/09/18 09:31:25;;;;;;;5.68;1.25;;;10.90;99.90;;;;;;5084260;28;20401;-72
2022/09/18 09:34:02;;;;;;;9.80;1.15;;;10.90;99.90;;;;;;5057382;28;20056;-73
2022/09/18 09:36:30;;;;;;;9.57;1.10;;;10.90;99.90;;;;;;5057656;28;20038;-73
2022/09/18 09:39:05;;;;;;;6.57;0.95;;;10.90;99.90;;;;;;5079196;28;20049;-73
2022/09/18 09:41:40;;;;;;;4.82;0.68;;;10.90;99.90;;;;;;5062557;28;20076;-72
2022/09/18 09:44:27;;;;;;;6.85;0.80;;;11.00;99.90;;;;;;5074852;28;20050;-74
2022/09/18 09:47:01;;;;;;;4.97;1.47;;;11.00;99.90;;;;;;5058056;28;20041;-74
2022/09/18 09:49:37;;;;;;;9.48;1.05;;;11.00;99.90;;;;;;5058729;28;20358;-73
2022/09/18 09:52:22;;;;;;;8.45;1.00;;;11.10;99.90;;;;;;5074655;28;20049;-72
2022/09/18 09:55:11;;;;;;;4.60;0.88;;;11.20;99.90;;;;;;5057804;28;20038;-73
2022/09/18 09:58:14;;;;;;;6.63;1.15;;;11.20;99.90;;;;;;5044577;28;20078;-73
2022/09/18 10:01:00;;;;;;;7.05;1.35;;;11.30;99.90;;;;;;5053173;28;20085;-73
2022/09/18 10:03:50;;;;;;;4.60;1.00;;;11.40;99.90;;;;;;5072457;28;20044;-73
2022/09/18 10:06:43;;;;;;;7.80;0.98;;;11.40;99.90;;;;;;5074524;28;20115;-73
2022/09/18 10:09:26;;;;;;;6.07;0.80;;;11.40;99.90;;;;;;5074612;28;20060;-73
2022/09/18 10:12:03;;;;;;;7.53;1.15;;;11.40;99.90;;;;;;5074634;28;20060;-74
2022/09/18 10:14:33;;;;;;;6.85;1.00;;;11.50;99.90;;;;;;5076048;28;20073;-73
2022/09/18 10:17:02;;;;;;;10.90;1.35;;;11.50;99.90;;;;;;5073943;28;20395;-73
2022/09/18 10:19:37;;;;;;;5.85;1.25;;;11.60;99.90;;;;;;5058003;28;20083;-73
2022/09/18 10:22:06;;;;;;;8.75;1.30;;;11.60;99.90;;;;;;5072411;28;20464;-73
2022/09/18 10:25:01;;;;;;;5.93;1.10;;;11.60;99.90;;;;;;5074132;28;20050;-74
2022/09/18 10:27:26;;;;;;;7.25;1.08;;;11.60;99.90;;;;;;5057139;28;20050;-74
2022/09/18 10:29:53;;;;;;;9.07;1.40;;;11.60;99.90;;;;;;5057712;28;20099;-73
2022/09/18 10:32:42;;;;;;;6.05;0.90;;;11.60;99.90;;;;;;5074354;28;20380;-73
2022/09/18 10:35:41;;;;;;;6.93;1.17;;;11.60;99.90;;;;;;5074333;28;20424;-73
2022/09/18 10:38:28;;;;;;;7.43;1.20;;;11.70;99.90;;;;;;5074296;28;20491;-73
2022/09/18 10:40:54;;;;;;;4.68;1.33;;;11.80;99.90;;;;;;5074374;28;20049;-74
2022/09/18 10:43:20;;;;;;;9.45;1.63;;;11.90;99.90;;;;;;5074511;28;20395;-73
2022/09/18 10:45:51;;;;;;;9.88;1.67;;;11.90;99.90;;;;;;5074092;28;20041;-73
2022/09/18 10:48:22;;;;;;;5.90;0.85;;;11.90;99.90;;;;;;5074280;28;20656;-73
2022/09/18 10:50:52;;;;;;;8.45;1.20;;;11.90;99.90;;;;;;5074389;28;20376;-73
2022/09/18 10:53:31;;;;;;;12.63;1.58;;;12.00;99.90;;;;;;5077860;28;20037;-73
2022/09/18 10:56:12;;;;;;;6.93;1.92;;;12.10;99.90;;;;;;5058428;28;20093;-73
2022/09/18 10:58:38;;;;;;;7.97;1.63;;;12.20;99.90;;;;;;5075963;28;20041;-74
2022/09/18 11:01:06;;;;;;;6.03;1.67;;;12.40;99.90;;;;;;5077814;28;20042;-74
2022/09/18 11:04:01;;;;;;;8.70;1.63;;;12.50;99.90;;;;;;5077288;28;20041;-73
2022/09/18 11:06:30;;;;;;;5.97;1.58;;;12.60;99.90;;;;;;5072321;28;20073;-74
2022/09/18 11:08:59;;;;;;;5.85;1.00;;;12.70;99.90;;;;;;5077155;28;20053;-74
2022/09/18 11:11:36;;;;;;;10.15;1.20;;;12.80;99.90;;;;;;5060557;28;20033;-74
2022/09/18 11:14:05;;;;;;;7.10;1.10;;;12.90;99.90;;;;;;5077463;28;20086;-74
2022/09/18 11:16:35;;;;;;;7.45;1.13;;;13.00;99.90;;;;;;5081992;28;20054;-74
2022/09/18 11:19:06;;;;;;;5.35;1.23;;;13.10;99.90;;;;;;5075861;28;20408;-74
2022/09/18 11:21:31;;;;;;;9.18;1.15;;;13.20;99.90;;;;;;5081810;28;20117;-74
2022/09/18 11:24:03;;;;;;;6.18;1.15;;;13.30;99.90;;;;;;5058798;28;20088;-74
2022/09/18 11:26:30;;;;;;;8.10;1.33;;;13.30;99.90;;;;;;5076780;28;20092;-74
2022/09/18 11:29:15;;;;;;;9.35;1.17;;;13.40;99.90;;;;;;5060368;28;20064;-74
2022/09/18 11:31:46;;;;;;;9.60;1.40;;;13.50;99.90;;;;;;5076708;28;20045;-74
2022/09/18 11:34:24;;;;;;;11.52;2.10;;;13.60;99.90;;;;;;5081725;28;20042;-74
2022/09/18 11:36:55;;;;;;;11.10;2.97;;;13.70;99.90;;;;;;5065671;28;20590;-74
2022/09/18 11:39:35;;;;;;;5.70;2.03;;;13.70;99.90;;;;;;5070275;28;20051;-74
2022/09/18 11:42:08;;;;;;;8.65;1.90;;;13.80;99.90;;;;;;5058330;28;20074;-74
2022/09/18 11:44:34;;;;;;;7.63;2.40;;;13.80;99.90;;;;;;5076601;28;20560;-73
2022/09/18 11:47:27;;;;;;;11.40;2.97;;;13.90;99.90;;;;;;5076768;28;20050;-74
2022/09/18 11:50:20;;;;;;;10.10;2.58;;;13.90;99.90;;;;;;5076847;28;20588;-74
2022/09/18 11:52:52;;;;;;;9.05;2.20;;;14.00;99.90;;;;;;5076402;28;20041;-74
2022/09/18 11:55:30;;;;;;;9.07;2.33;;;14.00;99.90;;;;;;5075942;28;20076;-74
2022/09/18 11:58:20;;;;;;;8.07;1.80;;;14.00;99.90;;;;;;5076625;28;20046;-74
2022/09/18 12:00:56;;;;;;;6.70;1.48;;;14.10;99.90;;;;;;5076592;28;20372;-74
2022/09/18 12:03:22;;;;;;;11.82;2.20;;;14.10;99.90;;;;;;5076576;28;20048;-73
2022/09/18 12:06:22;;;;;;;15.95;2.08;;;14.10;99.90;;;;;;5076387;28;20116;-73
2022/09/18 12:09:27;;;;;;;7.85;1.50;;;14.10;99.90;;;;;;5044614;28;20406;-73
2022/09/18 12:12:12;;;;;;;10.18;2.92;;;14.10;99.90;;;;;;5057998;28;20430;-73
2022/09/18 12:15:09;;;;;;;9.65;2.03;;;14.20;99.90;;;;;;5059097;28;20170;-73
2022/09/18 12:17:50;;;;;;;6.43;1.77;;;14.20;99.90;;;;;;5059159;28;20496;-73
2022/09/18 12:20:31;;;;;;;4.93;1.10;;;14.20;99.90;;;;;;5076505;28;20042;-74
2022/09/18 12:22:59;;;;;;;7.45;1.40;;;14.20;99.90;;;;;;5076187;28;20056;-74
2022/09/18 12:25:46;;;;;;;10.88;3.63;;;14.20;99.90;;;;;;5084701;28;20570;-73
2022/09/18 12:28:30;;;;;;;4.40;1.55;;;14.30;99.90;;;;;;5074898;28;20159;-75
2022/09/18 12:31:01;;;;;;;5.70;1.38;;;14.30;99.90;;;;;;5078651;28;20048;-74
2022/09/18 12:33:54;;;;;;;8.63;1.58;;;14.30;99.90;;;;;;5074685;28;20054;-74
2022/09/18 12:36:39;;;;;;;5.90;1.77;;;14.30;99.90;;;;;;5072159;28;20069;-74
2022/09/18 12:39:20;;;;;;;7.70;1.50;;;14.20;99.90;;;;;;5051202;28;20047;-74
2022/09/18 12:42:16;;;;;;;12.75;1.27;;;14.20;99.90;;;;;;5075343;28;20041;-75
2022/09/18 12:44:55;;;;;;;6.72;1.08;;;14.30;99.90;;;;;;5075375;28;20057;-74
2022/09/18 12:47:57;;;;;;;6.07;1.40;;;14.40;99.90;;;;;;5075939;28;20038;-74
2022/09/18 12:50:31;;;;;;;5.93;1.13;;;14.30;99.90;;;;;;5037283;28;20081;-75
2022/09/18 12:53:16;;;;;;;7.40;1.27;;;14.40;99.90;;;;;;5073535;28;20042;-73
2022/09/18 12:56:00;;;;;;;10.30;1.30;;;14.50;99.90;;;;;;5070697;28;20457;-74
2022/09/18 12:59:02;;;;;;;7.32;1.23;;;14.50;99.90;;;;;;5073814;28;20097;-74
2022/09/18 13:01:51;;;;;;;4.43;1.02;;;14.50;99.90;;;;;;5074600;28;20568;-74
2022/09/18 13:04:25;;;;;;;6.55;1.67;;;14.40;99.90;;;;;;5075682;28;20057;-74
2022/09/18 13:07:26;;;;;;;4.43;0.88;;;14.40;99.90;;;;;;5075530;28;20491;-74
2022/09/18 13:10:15;;;;;;;5.60;0.80;;;14.50;99.90;;;;;;5053879;28;20575;-74
2022/09/18 13:13:03;;;;;;;6.10;0.93;;;14.50;99.90;;;;;;5074772;28;20117;-74
2022/09/18 13:15:35;;;;;;;6.40;0.80;;;14.40;99.90;;;;;;5066422;28;20057;-75
2022/09/18 13:18:04;;;;;;;5.07;1.00;;;14.50;99.90;;;;;;5056647;28;20033;-75